Pagrindinis puslapis
METAR-TAF:

METAR-TAF

Oro uostai :

Noršiopingas, Švedija

platuma: 58-35N, ilguma: 016-09E, Aukštis: 34 m

Dabartinis oras

Ataskaita buvo paskelbta 37 minutes, ne 22:50 UTC
Vėjas 5 kt iš Pietvakarių
Temperatūra 16°C
Drėgmė 72%
Slėgis 1020 hPa
Matomumas 10 km arba daugiau
nėra debesų žemiau 1500 m ir nėra kamuolinių lietaus debesų

METAR: ESSP 022250Z 23005KT CAVOK 16/11 Q1020

Laikas: 01:27 (23:27 UTC)

Prognozė

Ataskaita buvo paskelbta 57 minutes, ne 22:30 UTC
Prognozė galioja nuo 02 metu 23 UTC su 03 metu 01 UTC
Vėjas 4 kt iš Pietvakarių
Matomumas 10 km arba daugiau
nėra debesų žemiau 1500 m ir nėra kamuolinių lietaus debesų

TAF: ESSP 022230Z 0223/0301 23004KT CAVOK

Orai ataskaitas ir orų prognozės (METAR, TAF).

turimą stotys yra geltonos ir raudonos taškus žemėlapyje.

Perkelti pele per norėdami pamatyti stoties vardą.

Tada spustelėkite, norėdami matyti oro stebėjimo ir prognozės.

Norėdami pakeisti žemėlapį: spustelėkite ant žalios mygtukų su juodo kryžiaus žemyn,; žalią mygtuką su brūkšneliu, jei norite nutolinti; arba žalių rodyklių gretimoms žemėlapius.


METAR-TAF: